sensor_id;sensor_type;location;lat;lon;timestamp;P1;durP1;ratioP1;P2;durP2;ratioP2
42702;SDS011;28341;52.064;4.920;2024-02-21T00:01:51;22.50;;;5.32;;
42702;SDS011;28341;52.064;4.920;2024-02-21T00:03:53;31.75;;;4.75;;
42702;SDS011;28341;52.064;4.920;2024-02-21T00:05:57;23.33;;;4.78;;
42702;SDS011;28341;52.064;4.920;2024-02-21T00:08:01;21.92;;;4.50;;
42702;SDS011;28341;52.064;4.920;2024-02-21T00:10:07;18.17;;;4.07;;
42702;SDS011;28341;52.064;4.920;2024-02-21T00:12:12;24.92;;;4.50;;
42702;SDS011;28341;52.064;4.920;2024-02-21T00:14:17;22.65;;;4.35;;
42702;SDS011;28341;52.064;4.920;2024-02-21T00:16:22;23.42;;;3.97;;
42702;SDS011;28341;52.064;4.920;2024-02-21T00:18:29;28.17;;;4.45;;
42702;SDS011;28341;52.064;4.920;2024-02-21T00:20:33;25.88;;;4.25;;
42702;SDS011;28341;52.064;4.920;2024-02-21T00:22:38;14.15;;;3.40;;
42702;SDS011;28341;52.064;4.920;2024-02-21T00:24:39;21.60;;;5.28;;
42702;SDS011;28341;52.064;4.920;2024-02-21T00:26:44;20.80;;;5.25;;
42702;SDS011;28341;52.064;4.920;2024-02-21T00:28:48;21.67;;;3.80;;
42702;SDS011;28341;52.064;4.920;2024-02-21T00:30:53;23.92;;;3.70;;
42702;SDS011;28341;52.064;4.920;2024-02-21T00:32:57;20.50;;;4.43;;
42702;SDS011;28341;52.064;4.920;2024-02-21T00:35:04;25.35;;;5.20;;
42702;SDS011;28341;52.064;4.920;2024-02-21T00:37:07;23.95;;;5.13;;
42702;SDS011;28341;52.064;4.920;2024-02-21T00:39:11;21.88;;;4.97;;
42702;SDS011;28341;52.064;4.920;2024-02-21T00:41:16;19.65;;;4.55;;
42702;SDS011;28341;52.064;4.920;2024-02-21T00:43:20;26.60;;;4.68;;
42702;SDS011;28341;52.064;4.920;2024-02-21T00:45:26;20.05;;;4.70;;
42702;SDS011;28341;52.064;4.920;2024-02-21T00:47:30;23.25;;;5.32;;
42702;SDS011;28341;52.064;4.920;2024-02-21T00:49:35;27.38;;;6.30;;
42702;SDS011;28341;52.064;4.920;2024-02-21T00:51:43;29.70;;;5.28;;
42702;SDS011;28341;52.064;4.920;2024-02-21T00:53:48;15.32;;;4.10;;
42702;SDS011;28341;52.064;4.920;2024-02-21T00:55:53;20.17;;;4.38;;
42702;SDS011;28341;52.064;4.920;2024-02-21T00:57:59;18.98;;;5.03;;
42702;SDS011;28341;52.064;4.920;2024-02-21T01:00:05;29.50;;;4.95;;
42702;SDS011;28341;52.064;4.920;2024-02-21T01:02:12;24.83;;;4.68;;
42702;SDS011;28341;52.064;4.920;2024-02-21T01:04:15;26.05;;;5.10;;
42702;SDS011;28341;52.064;4.920;2024-02-21T01:06:19;20.73;;;5.05;;
42702;SDS011;28341;52.064;4.920;2024-02-21T01:08:27;26.00;;;5.35;;
42702;SDS011;28341;52.064;4.920;2024-02-21T01:10:32;23.08;;;5.85;;
42702;SDS011;28341;52.064;4.920;2024-02-21T01:12:37;24.45;;;5.20;;
42702;SDS011;28341;52.064;4.920;2024-02-21T01:14:42;22.88;;;5.30;;
42702;SDS011;28341;52.064;4.920;2024-02-21T01:16:49;27.05;;;5.70;;
42702;SDS011;28341;52.064;4.920;2024-02-21T01:18:54;25.73;;;6.03;;
42702;SDS011;28341;52.064;4.920;2024-02-21T01:20:59;23.40;;;5.57;;
42702;SDS011;28341;52.064;4.920;2024-02-21T01:23:03;25.67;;;6.03;;
42702;SDS011;28341;52.064;4.920;2024-02-21T01:25:12;25.83;;;5.78;;
42702;SDS011;28341;52.064;4.920;2024-02-21T01:27:17;21.00;;;5.68;;
42702;SDS011;28341;52.064;4.920;2024-02-21T01:29:21;26.15;;;6.10;;
42702;SDS011;28341;52.064;4.920;2024-02-21T01:31:26;21.35;;;5.93;;
42702;SDS011;28341;52.064;4.920;2024-02-21T01:33:30;31.70;;;5.90;;
42702;SDS011;28341;52.064;4.920;2024-02-21T01:35:35;34.47;;;5.60;;
42702;SDS011;28341;52.064;4.920;2024-02-21T01:37:40;22.02;;;5.95;;
42702;SDS011;28341;52.064;4.920;2024-02-21T01:39:45;25.92;;;5.45;;
42702;SDS011;28341;52.064;4.920;2024-02-21T01:42:02;25.20;;;5.32;;
42702;SDS011;28341;52.064;4.920;2024-02-21T01:44:09;27.77;;;6.10;;
42702;SDS011;28341;52.064;4.920;2024-02-21T01:46:13;23.02;;;5.93;;
42702;SDS011;28341;52.064;4.920;2024-02-21T01:48:18;22.00;;;5.35;;
42702;SDS011;28341;52.064;4.920;2024-02-21T01:50:20;22.97;;;4.93;;
42702;SDS011;28341;52.064;4.920;2024-02-21T01:52:25;24.73;;;6.05;;
42702;SDS011;28341;52.064;4.920;2024-02-21T01:54:30;24.88;;;5.85;;
42702;SDS011;28341;52.064;4.920;2024-02-21T01:56:35;23.70;;;5.85;;
42702;SDS011;28341;52.064;4.920;2024-02-21T01:58:42;28.77;;;6.20;;
42702;SDS011;28341;52.064;4.920;2024-02-21T02:00:45;21.80;;;6.18;;
42702;SDS011;28341;52.064;4.920;2024-02-21T02:02:50;21.83;;;6.05;;
42702;SDS011;28341;52.064;4.920;2024-02-21T02:04:52;27.67;;;6.40;;
42702;SDS011;28341;52.064;4.920;2024-02-21T02:06:57;23.17;;;6.00;;
42702;SDS011;28341;52.064;4.920;2024-02-21T02:09:04;26.25;;;7.00;;
42702;SDS011;28341;52.064;4.920;2024-02-21T02:11:08;25.08;;;5.90;;
42702;SDS011;28341;52.064;4.920;2024-02-21T02:13:12;21.17;;;5.30;;
42702;SDS011;28341;52.064;4.920;2024-02-21T02:15:20;20.45;;;6.40;;
42702;SDS011;28341;52.064;4.920;2024-02-21T02:17:24;21.30;;;6.40;;
42702;SDS011;28341;52.064;4.920;2024-02-21T02:19:29;22.90;;;6.57;;
42702;SDS011;28341;52.064;4.920;2024-02-21T02:21:34;21.05;;;6.35;;
42702;SDS011;28341;52.064;4.920;2024-02-21T02:23:43;26.00;;;7.03;;
42702;SDS011;28341;52.064;4.920;2024-02-21T02:25:47;22.42;;;6.38;;
42702;SDS011;28341;52.064;4.920;2024-02-21T02:27:53;25.90;;;7.85;;
42702;SDS011;28341;52.064;4.920;2024-02-21T02:29:57;25.45;;;6.60;;
42702;SDS011;28341;52.064;4.920;2024-02-21T02:32:02;22.27;;;6.88;;
42702;SDS011;28341;52.064;4.920;2024-02-21T02:34:07;26.65;;;7.18;;
42702;SDS011;28341;52.064;4.920;2024-02-21T02:36:12;25.45;;;8.00;;
42702;SDS011;28341;52.064;4.920;2024-02-21T02:38:13;25.30;;;7.32;;
42702;SDS011;28341;52.064;4.920;2024-02-21T02:40:21;26.65;;;7.22;;
42702;SDS011;28341;52.064;4.920;2024-02-21T02:42:25;20.38;;;6.78;;
42702;SDS011;28341;52.064;4.920;2024-02-21T02:44:30;23.08;;;7.18;;
42702;SDS011;28341;52.064;4.920;2024-02-21T02:46:35;22.75;;;7.93;;
42702;SDS011;28341;52.064;4.920;2024-02-21T02:48:39;22.50;;;7.70;;
42702;SDS011;28341;52.064;4.920;2024-02-21T02:50:45;21.05;;;8.52;;
42702;SDS011;28341;52.064;4.920;2024-02-21T02:52:49;25.95;;;8.25;;
42702;SDS011;28341;52.064;4.920;2024-02-21T02:54:51;23.23;;;8.23;;
42702;SDS011;28341;52.064;4.920;2024-02-21T02:56:59;21.40;;;8.20;;
42702;SDS011;28341;52.064;4.920;2024-02-21T02:59:05;27.67;;;9.00;;
42702;SDS011;28341;52.064;4.920;2024-02-21T03:01:09;25.13;;;8.00;;
42702;SDS011;28341;52.064;4.920;2024-02-21T03:03:15;36.47;;;8.40;;
42702;SDS011;28341;52.064;4.920;2024-02-21T03:05:20;29.67;;;8.73;;
42702;SDS011;28341;52.064;4.920;2024-02-21T03:07:25;30.45;;;9.13;;
42702;SDS011;28341;52.064;4.920;2024-02-21T03:09:30;26.95;;;9.10;;
42702;SDS011;28341;52.064;4.920;2024-02-21T03:11:35;27.83;;;8.45;;
42702;SDS011;28341;52.064;4.920;2024-02-21T03:13:43;21.55;;;8.40;;
42702;SDS011;28341;52.064;4.920;2024-02-21T03:15:48;21.02;;;7.70;;
42702;SDS011;28341;52.064;4.920;2024-02-21T03:17:52;25.65;;;8.60;;
42702;SDS011;28341;52.064;4.920;2024-02-21T03:19:57;20.92;;;8.40;;
42702;SDS011;28341;52.064;4.920;2024-02-21T03:22:00;34.55;;;10.20;;
42702;SDS011;28341;52.064;4.920;2024-02-21T03:24:06;21.67;;;8.75;;
42702;SDS011;28341;52.064;4.920;2024-02-21T03:26:11;19.83;;;8.35;;
42702;SDS011;28341;52.064;4.920;2024-02-21T03:28:17;23.98;;;8.45;;
42702;SDS011;28341;52.064;4.920;2024-02-21T03:30:24;19.58;;;8.73;;
42702;SDS011;28341;52.064;4.920;2024-02-21T03:32:29;23.90;;;8.43;;
42702;SDS011;28341;52.064;4.920;2024-02-21T03:34:33;26.10;;;8.77;;
42702;SDS011;28341;52.064;4.920;2024-02-21T03:36:38;23.20;;;8.65;;
42702;SDS011;28341;52.064;4.920;2024-02-21T03:38:42;22.48;;;7.88;;
42702;SDS011;28341;52.064;4.920;2024-02-21T03:40:45;15.13;;;7.00;;
42702;SDS011;28341;52.064;4.920;2024-02-21T03:42:50;13.88;;;6.78;;
42702;SDS011;28341;52.064;4.920;2024-02-21T03:44:54;18.45;;;7.43;;
42702;SDS011;28341;52.064;4.920;2024-02-21T03:47:01;18.38;;;6.93;;
42702;SDS011;28341;52.064;4.920;2024-02-21T03:49:03;15.68;;;6.57;;
42702;SDS011;28341;52.064;4.920;2024-02-21T03:51:08;22.25;;;7.15;;
42702;SDS011;28341;52.064;4.920;2024-02-21T03:53:13;22.50;;;7.47;;
42702;SDS011;28341;52.064;4.920;2024-02-21T03:55:18;13.13;;;6.32;;
42702;SDS011;28341;52.064;4.920;2024-02-21T03:57:23;21.02;;;7.70;;
42702;SDS011;28341;52.064;4.920;2024-02-21T03:59:27;17.15;;;6.85;;
42702;SDS011;28341;52.064;4.920;2024-02-21T04:01:32;17.17;;;7.03;;
42702;SDS011;28341;52.064;4.920;2024-02-21T04:03:39;17.60;;;7.20;;
42702;SDS011;28341;52.064;4.920;2024-02-21T04:05:43;21.02;;;7.53;;
42702;SDS011;28341;52.064;4.920;2024-02-21T04:07:48;19.38;;;7.70;;
42702;SDS011;28341;52.064;4.920;2024-02-21T04:09:53;24.17;;;7.13;;
42702;SDS011;28341;52.064;4.920;2024-02-21T04:11:57;18.25;;;7.05;;
42702;SDS011;28341;52.064;4.920;2024-02-21T04:14:02;18.50;;;6.40;;
42702;SDS011;28341;52.064;4.920;2024-02-21T04:16:07;17.30;;;6.93;;
42702;SDS011;28341;52.064;4.920;2024-02-21T04:18:12;21.30;;;7.55;;
42702;SDS011;28341;52.064;4.920;2024-02-21T04:20:19;21.75;;;7.60;;
42702;SDS011;28341;52.064;4.920;2024-02-21T04:22:24;15.68;;;7.63;;
42702;SDS011;28341;52.064;4.920;2024-02-21T04:24:28;18.30;;;7.90;;
42702;SDS011;28341;52.064;4.920;2024-02-21T04:26:30;17.42;;;6.68;;
42702;SDS011;28341;52.064;4.920;2024-02-21T04:28:35;19.08;;;7.95;;
42702;SDS011;28341;52.064;4.920;2024-02-21T04:30:39;18.25;;;7.68;;
42702;SDS011;28341;52.064;4.920;2024-02-21T04:32:41;13.82;;;7.38;;
42702;SDS011;28341;52.064;4.920;2024-02-21T04:34:45;15.48;;;8.15;;
42702;SDS011;28341;52.064;4.920;2024-02-21T04:36:52;19.60;;;7.93;;
42702;SDS011;28341;52.064;4.920;2024-02-21T04:38:57;15.63;;;7.88;;
42702;SDS011;28341;52.064;4.920;2024-02-21T04:41:01;17.27;;;7.43;;
42702;SDS011;28341;52.064;4.920;2024-02-21T04:43:06;21.63;;;7.53;;
42702;SDS011;28341;52.064;4.920;2024-02-21T04:45:10;20.98;;;8.38;;
42702;SDS011;28341;52.064;4.920;2024-02-21T04:47:12;20.85;;;7.63;;
42702;SDS011;28341;52.064;4.920;2024-02-21T04:49:17;20.25;;;8.05;;
42702;SDS011;28341;52.064;4.920;2024-02-21T04:51:21;18.85;;;8.82;;
42702;SDS011;28341;52.064;4.920;2024-02-21T04:53:29;17.20;;;8.45;;
42702;SDS011;28341;52.064;4.920;2024-02-21T04:55:33;15.52;;;8.05;;
42702;SDS011;28341;52.064;4.920;2024-02-21T04:57:37;19.58;;;9.02;;
42702;SDS011;28341;52.064;4.920;2024-02-21T04:59:42;16.98;;;8.75;;
42702;SDS011;28341;52.064;4.920;2024-02-21T05:01:48;15.05;;;9.13;;
42702;SDS011;28341;52.064;4.920;2024-02-21T05:03:52;17.58;;;9.25;;
42702;SDS011;28341;52.064;4.920;2024-02-21T05:05:56;17.67;;;9.65;;
42702;SDS011;28341;52.064;4.920;2024-02-21T05:08:02;18.30;;;10.32;;
42702;SDS011;28341;52.064;4.920;2024-02-21T05:10:08;20.33;;;10.88;;
42702;SDS011;28341;52.064;4.920;2024-02-21T05:12:12;19.27;;;10.00;;
42702;SDS011;28341;52.064;4.920;2024-02-21T05:14:17;17.95;;;11.23;;
42702;SDS011;28341;52.064;4.920;2024-02-21T05:16:21;18.02;;;10.23;;
42702;SDS011;28341;52.064;4.920;2024-02-21T05:18:26;19.92;;;11.02;;
42702;SDS011;28341;52.064;4.920;2024-02-21T05:20:31;15.98;;;11.73;;
42702;SDS011;28341;52.064;4.920;2024-02-21T05:22:33;15.70;;;10.60;;
42702;SDS011;28341;52.064;4.920;2024-02-21T05:24:38;22.00;;;11.40;;
42702;SDS011;28341;52.064;4.920;2024-02-21T05:26:45;20.35;;;11.82;;
42702;SDS011;28341;52.064;4.920;2024-02-21T05:28:50;22.52;;;12.68;;
42702;SDS011;28341;52.064;4.920;2024-02-21T05:30:54;18.30;;;10.93;;
42702;SDS011;28341;52.064;4.920;2024-02-21T05:33:03;23.55;;;11.27;;
42702;SDS011;28341;52.064;4.920;2024-02-21T05:35:08;21.45;;;11.73;;
42702;SDS011;28341;52.064;4.920;2024-02-21T05:37:12;22.27;;;12.25;;
42702;SDS011;28341;52.064;4.920;2024-02-21T05:39:17;21.13;;;11.57;;
42702;SDS011;28341;52.064;4.920;2024-02-21T05:41:19;18.50;;;11.73;;
42702;SDS011;28341;52.064;4.920;2024-02-21T05:43:26;23.63;;;10.77;;
42702;SDS011;28341;52.064;4.920;2024-02-21T05:45:30;19.77;;;11.43;;
42702;SDS011;28341;52.064;4.920;2024-02-21T05:47:35;17.98;;;10.93;;
42702;SDS011;28341;52.064;4.920;2024-02-21T05:49:39;17.92;;;10.48;;
42702;SDS011;28341;52.064;4.920;2024-02-21T05:51:44;18.00;;;10.98;;
42702;SDS011;28341;52.064;4.920;2024-02-21T05:53:48;17.45;;;11.05;;
42702;SDS011;28341;52.064;4.920;2024-02-21T05:55:53;22.42;;;11.93;;
42702;SDS011;28341;52.064;4.920;2024-02-21T05:57:57;18.80;;;11.77;;
42702;SDS011;28341;52.064;4.920;2024-02-21T06:00:08;21.98;;;12.02;;
42702;SDS011;28341;52.064;4.920;2024-02-21T06:02:14;20.77;;;11.73;;
42702;SDS011;28341;52.064;4.920;2024-02-21T06:04:18;23.10;;;12.32;;
42702;SDS011;28341;52.064;4.920;2024-02-21T06:06:23;21.52;;;13.27;;
42702;SDS011;28341;52.064;4.920;2024-02-21T06:08:27;22.35;;;12.82;;
42702;SDS011;28341;52.064;4.920;2024-02-21T06:10:32;27.48;;;13.50;;
42702;SDS011;28341;52.064;4.920;2024-02-21T06:12:36;27.63;;;12.90;;
42702;SDS011;28341;52.064;4.920;2024-02-21T06:14:41;23.08;;;12.77;;
42702;SDS011;28341;52.064;4.920;2024-02-21T06:16:48;21.85;;;12.70;;
42702;SDS011;28341;52.064;4.920;2024-02-21T06:18:52;27.92;;;13.38;;
42702;SDS011;28341;52.064;4.920;2024-02-21T06:20:56;29.17;;;16.55;;
42702;SDS011;28341;52.064;4.920;2024-02-21T06:23:01;24.27;;;16.20;;
42702;SDS011;28341;52.064;4.920;2024-02-21T06:25:05;23.92;;;14.25;;
42702;SDS011;28341;52.064;4.920;2024-02-21T06:27:11;25.70;;;14.70;;
42702;SDS011;28341;52.064;4.920;2024-02-21T06:29:15;25.35;;;14.00;;
42702;SDS011;28341;52.064;4.920;2024-02-21T06:31:19;22.60;;;13.07;;
42702;SDS011;28341;52.064;4.920;2024-02-21T06:33:26;23.77;;;12.45;;
42702;SDS011;28341;52.064;4.920;2024-02-21T06:35:31;22.55;;;12.85;;
42702;SDS011;28341;52.064;4.920;2024-02-21T06:37:32;29.45;;;13.32;;
42702;SDS011;28341;52.064;4.920;2024-02-21T06:39:38;26.02;;;13.10;;
42702;SDS011;28341;52.064;4.920;2024-02-21T06:41:43;25.23;;;13.27;;
42702;SDS011;28341;52.064;4.920;2024-02-21T06:43:48;25.23;;;13.30;;
42702;SDS011;28341;52.064;4.920;2024-02-21T06:45:52;24.50;;;12.80;;
42702;SDS011;28341;52.064;4.920;2024-02-21T06:47:57;54.85;;;30.73;;
42702;SDS011;28341;52.064;4.920;2024-02-21T06:50:05;55.58;;;34.55;;
42702;SDS011;28341;52.064;4.920;2024-02-21T06:52:11;29.30;;;14.60;;
42702;SDS011;28341;52.064;4.920;2024-02-21T06:54:17;27.63;;;12.98;;
42702;SDS011;28341;52.064;4.920;2024-02-21T06:56:22;27.85;;;12.45;;
42702;SDS011;28341;52.064;4.920;2024-02-21T06:58:29;33.53;;;13.88;;
42702;SDS011;28341;52.064;4.920;2024-02-21T07:00:33;31.33;;;13.98;;
42702;SDS011;28341;52.064;4.920;2024-02-21T07:02:38;30.60;;;15.13;;
42702;SDS011;28341;52.064;4.920;2024-02-21T07:04:42;28.30;;;14.00;;
42702;SDS011;28341;52.064;4.920;2024-02-21T07:06:49;33.88;;;14.82;;
42702;SDS011;28341;52.064;4.920;2024-02-21T07:08:54;26.63;;;14.05;;
42702;SDS011;28341;52.064;4.920;2024-02-21T07:10:58;30.58;;;14.32;;
42702;SDS011;28341;52.064;4.920;2024-02-21T07:13:02;32.78;;;14.13;;
42702;SDS011;28341;52.064;4.920;2024-02-21T07:15:07;25.33;;;13.13;;
42702;SDS011;28341;52.064;4.920;2024-02-21T07:17:11;26.50;;;13.65;;
42702;SDS011;28341;52.064;4.920;2024-02-21T07:19:16;33.50;;;14.43;;
42702;SDS011;28341;52.064;4.920;2024-02-21T07:21:18;26.00;;;13.77;;
42702;SDS011;28341;52.064;4.920;2024-02-21T07:23:25;29.30;;;14.95;;
42702;SDS011;28341;52.064;4.920;2024-02-21T07:25:29;30.05;;;16.23;;
42702;SDS011;28341;52.064;4.920;2024-02-21T07:27:34;30.90;;;14.23;;
42702;SDS011;28341;52.064;4.920;2024-02-21T07:29:38;29.70;;;13.68;;
42702;SDS011;28341;52.064;4.920;2024-02-21T07:31:43;26.17;;;13.77;;
42702;SDS011;28341;52.064;4.920;2024-02-21T07:33:49;29.27;;;15.18;;
42702;SDS011;28341;52.064;4.920;2024-02-21T07:35:53;30.25;;;14.73;;
42702;SDS011;28341;52.064;4.920;2024-02-21T07:37:58;26.55;;;14.90;;
42702;SDS011;28341;52.064;4.920;2024-02-21T07:40:03;29.17;;;14.88;;
42702;SDS011;28341;52.064;4.920;2024-02-21T07:42:09;31.15;;;15.32;;
42702;SDS011;28341;52.064;4.920;2024-02-21T07:44:14;30.60;;;15.27;;
42702;SDS011;28341;52.064;4.920;2024-02-21T07:46:18;28.38;;;14.95;;
42702;SDS011;28341;52.064;4.920;2024-02-21T07:48:22;24.33;;;14.43;;
42702;SDS011;28341;52.064;4.920;2024-02-21T07:50:27;32.15;;;16.58;;
42702;SDS011;28341;52.064;4.920;2024-02-21T07:52:32;31.85;;;16.58;;
42702;SDS011;28341;52.064;4.920;2024-02-21T07:54:36;30.77;;;15.80;;
42702;SDS011;28341;52.064;4.920;2024-02-21T07:56:41;26.65;;;15.77;;
42702;SDS011;28341;52.064;4.920;2024-02-21T07:58:45;29.58;;;15.70;;
42702;SDS011;28341;52.064;4.920;2024-02-21T08:00:50;34.65;;;16.73;;
42702;SDS011;28341;52.064;4.920;2024-02-21T08:02:54;33.72;;;16.08;;
42702;SDS011;28341;52.064;4.920;2024-02-21T08:04:58;32.22;;;16.95;;
42702;SDS011;28341;52.064;4.920;2024-02-21T08:07:04;29.88;;;17.15;;
42702;SDS011;28341;52.064;4.920;2024-02-21T08:09:08;83.80;;;58.30;;
42702;SDS011;28341;52.064;4.920;2024-02-21T08:11:12;45.35;;;29.23;;
42702;SDS011;28341;52.064;4.920;2024-02-21T08:13:20;31.35;;;18.98;;
42702;SDS011;28341;52.064;4.920;2024-02-21T08:15:22;32.22;;;16.85;;
42702;SDS011;28341;52.064;4.920;2024-02-21T08:17:29;30.50;;;16.83;;
42702;SDS011;28341;52.064;4.920;2024-02-21T08:19:34;32.60;;;17.83;;
42702;SDS011;28341;52.064;4.920;2024-02-21T08:21:38;29.05;;;16.48;;
42702;SDS011;28341;52.064;4.920;2024-02-21T08:23:43;29.38;;;17.45;;
42702;SDS011;28341;52.064;4.920;2024-02-21T08:25:51;30.35;;;16.73;;
42702;SDS011;28341;52.064;4.920;2024-02-21T08:27:57;27.17;;;16.17;;
42702;SDS011;28341;52.064;4.920;2024-02-21T08:30:05;25.38;;;15.52;;
42702;SDS011;28341;52.064;4.920;2024-02-21T08:32:11;29.83;;;17.00;;
42702;SDS011;28341;52.064;4.920;2024-02-21T08:34:16;29.38;;;15.77;;
42702;SDS011;28341;52.064;4.920;2024-02-21T08:36:20;28.42;;;16.63;;
42702;SDS011;28341;52.064;4.920;2024-02-21T08:38:25;31.08;;;15.25;;
42702;SDS011;28341;52.064;4.920;2024-02-21T08:40:29;27.48;;;15.20;;
42702;SDS011;28341;52.064;4.920;2024-02-21T08:42:35;29.00;;;15.30;;
42702;SDS011;28341;52.064;4.920;2024-02-21T08:44:39;35.58;;;16.70;;
42702;SDS011;28341;52.064;4.920;2024-02-21T08:46:47;26.88;;;16.27;;
42702;SDS011;28341;52.064;4.920;2024-02-21T08:48:52;26.15;;;16.30;;
42702;SDS011;28341;52.064;4.920;2024-02-21T08:50:56;27.13;;;16.20;;
42702;SDS011;28341;52.064;4.920;2024-02-21T08:52:58;28.75;;;16.63;;
42702;SDS011;28341;52.064;4.920;2024-02-21T08:55:03;29.58;;;17.23;;
42702;SDS011;28341;52.064;4.920;2024-02-21T08:57:08;29.88;;;16.60;;
42702;SDS011;28341;52.064;4.920;2024-02-21T08:59:14;28.98;;;15.98;;
42702;SDS011;28341;52.064;4.920;2024-02-21T09:01:18;24.85;;;16.35;;
42702;SDS011;28341;52.064;4.920;2024-02-21T09:03:26;30.17;;;16.92;;
42702;SDS011;28341;52.064;4.920;2024-02-21T09:05:30;29.58;;;16.17;;
42702;SDS011;28341;52.064;4.920;2024-02-21T09:07:35;23.45;;;15.65;;
42702;SDS011;28341;52.064;4.920;2024-02-21T09:09:39;30.45;;;16.48;;
42702;SDS011;28341;52.064;4.920;2024-02-21T09:11:44;26.45;;;16.08;;
42702;SDS011;28341;52.064;4.920;2024-02-21T09:13:48;23.65;;;15.38;;
42702;SDS011;28341;52.064;4.920;2024-02-21T09:15:53;24.67;;;14.85;;
42702;SDS011;28341;52.064;4.920;2024-02-21T09:17:57;31.15;;;15.77;;
42702;SDS011;28341;52.064;4.920;2024-02-21T09:20:05;26.63;;;14.68;;
42702;SDS011;28341;52.064;4.920;2024-02-21T09:22:12;24.73;;;14.98;;
42702;SDS011;28341;52.064;4.920;2024-02-21T09:24:17;29.25;;;15.35;;
42702;SDS011;28341;52.064;4.920;2024-02-21T09:26:19;29.20;;;14.85;;
42702;SDS011;28341;52.064;4.920;2024-02-21T09:28:23;23.55;;;13.48;;
42702;SDS011;28341;52.064;4.920;2024-02-21T09:30:28;29.67;;;14.30;;
42702;SDS011;28341;52.064;4.920;2024-02-21T09:32:32;22.92;;;13.77;;
42702;SDS011;28341;52.064;4.920;2024-02-21T09:34:37;25.55;;;13.85;;
42702;SDS011;28341;52.064;4.920;2024-02-21T09:36:42;22.35;;;13.95;;
42702;SDS011;28341;52.064;4.920;2024-02-21T09:38:47;19.48;;;13.07;;
42702;SDS011;28341;52.064;4.920;2024-02-21T09:40:53;22.77;;;12.45;;
42702;SDS011;28341;52.064;4.920;2024-02-21T09:43:03;21.30;;;12.60;;
42702;SDS011;28341;52.064;4.920;2024-02-21T09:45:08;22.35;;;12.68;;
42702;SDS011;28341;52.064;4.920;2024-02-21T09:47:23;25.23;;;12.38;;
42702;SDS011;28341;52.064;4.920;2024-02-21T09:49:33;22.20;;;13.18;;
42702;SDS011;28341;52.064;4.920;2024-02-21T09:51:38;24.20;;;12.68;;
42702;SDS011;28341;52.064;4.920;2024-02-21T09:53:46;20.30;;;10.93;;
42702;SDS011;28341;52.064;4.920;2024-02-21T09:55:49;19.52;;;12.52;;
42702;SDS011;28341;52.064;4.920;2024-02-21T09:57:53;20.45;;;11.38;;
42702;SDS011;28341;52.064;4.920;2024-02-21T09:59:58;17.42;;;11.02;;
42702;SDS011;28341;52.064;4.920;2024-02-21T10:02:13;20.75;;;11.23;;
42702;SDS011;28341;52.064;4.920;2024-02-21T10:04:18;19.45;;;12.02;;
42702;SDS011;28341;52.064;4.920;2024-02-21T10:06:23;21.77;;;11.75;;
42702;SDS011;28341;52.064;4.920;2024-02-21T10:08:31;19.48;;;10.88;;
42702;SDS011;28341;52.064;4.920;2024-02-21T10:10:42;21.05;;;10.55;;
42702;SDS011;28341;52.064;4.920;2024-02-21T10:12:49;17.23;;;10.85;;
42702;SDS011;28341;52.064;4.920;2024-02-21T10:14:59;17.98;;;10.60;;
42702;SDS011;28341;52.064;4.920;2024-02-21T10:17:04;19.05;;;9.95;;
42702;SDS011;28341;52.064;4.920;2024-02-21T10:19:15;18.27;;;10.02;;
42702;SDS011;28341;52.064;4.920;2024-02-21T10:21:21;19.38;;;10.48;;
42702;SDS011;28341;52.064;4.920;2024-02-21T10:23:25;17.88;;;9.80;;
42702;SDS011;28341;52.064;4.920;2024-02-21T10:25:32;15.10;;;9.70;;
42702;SDS011;28341;52.064;4.920;2024-02-21T10:27:38;16.70;;;10.05;;
42702;SDS011;28341;52.064;4.920;2024-02-21T10:29:43;15.75;;;8.90;;
42702;SDS011;28341;52.064;4.920;2024-02-21T10:32:03;14.85;;;9.80;;
42702;SDS011;28341;52.064;4.920;2024-02-21T10:34:11;14.57;;;9.60;;
42702;SDS011;28341;52.064;4.920;2024-02-21T10:36:21;17.20;;;8.90;;
42702;SDS011;28341;52.064;4.920;2024-02-21T10:38:26;16.90;;;9.90;;
42702;SDS011;28341;52.064;4.920;2024-02-21T10:40:34;11.90;;;9.02;;
42702;SDS011;28341;52.064;4.920;2024-02-21T10:42:38;12.77;;;8.90;;
42702;SDS011;28341;52.064;4.920;2024-02-21T10:44:41;14.93;;;9.87;;
42702;SDS011;28341;52.064;4.920;2024-02-21T10:46:45;14.70;;;9.70;;
42702;SDS011;28341;52.064;4.920;2024-02-21T10:48:53;12.68;;;9.00;;
42702;SDS011;28341;52.064;4.920;2024-02-21T10:51:10;13.93;;;8.23;;
42702;SDS011;28341;52.064;4.920;2024-02-21T10:53:24;12.13;;;8.57;;
42702;SDS011;28341;52.064;4.920;2024-02-21T10:55:41;13.75;;;8.25;;
42702;SDS011;28341;52.064;4.920;2024-02-21T10:57:59;13.30;;;8.70;;
42702;SDS011;28341;52.064;4.920;2024-02-21T11:00:04;9.90;;;7.80;;
42702;SDS011;28341;52.064;4.920;2024-02-21T11:02:12;11.30;;;7.78;;
42702;SDS011;28341;52.064;4.920;2024-02-21T11:04:17;10.77;;;8.23;;
42702;SDS011;28341;52.064;4.920;2024-02-21T11:06:20;11.88;;;8.07;;
42702;SDS011;28341;52.064;4.920;2024-02-21T11:08:24;9.20;;;7.55;;
42702;SDS011;28341;52.064;4.920;2024-02-21T11:10:28;12.07;;;8.23;;
42702;SDS011;28341;52.064;4.920;2024-02-21T11:12:35;18.80;;;9.88;;
42702;SDS011;28341;52.064;4.920;2024-02-21T11:14:40;12.32;;;9.43;;
42702;SDS011;28341;52.064;4.920;2024-02-21T11:16:50;13.15;;;9.77;;
42702;SDS011;28341;52.064;4.920;2024-02-21T11:19:06;12.05;;;9.68;;
42702;SDS011;28341;52.064;4.920;2024-02-21T11:21:17;12.52;;;9.55;;
42702;SDS011;28341;52.064;4.920;2024-02-21T11:23:28;17.23;;;10.75;;
42702;SDS011;28341;52.064;4.920;2024-02-21T11:25:39;17.08;;;10.10;;
42702;SDS011;28341;52.064;4.920;2024-02-21T11:27:58;35.38;;;26.23;;
42702;SDS011;28341;52.064;4.920;2024-02-21T11:30:11;15.85;;;10.05;;
42702;SDS011;28341;52.064;4.920;2024-02-21T11:32:24;15.30;;;10.43;;
42702;SDS011;28341;52.064;4.920;2024-02-21T11:34:36;14.93;;;10.52;;
42702;SDS011;28341;52.064;4.920;2024-02-21T11:36:48;13.52;;;9.75;;
42702;SDS011;28341;52.064;4.920;2024-02-21T11:39:03;15.32;;;9.88;;
42702;SDS011;28341;52.064;4.920;2024-02-21T11:41:16;14.93;;;9.57;;
42702;SDS011;28341;52.064;4.920;2024-02-21T15:00:01;18.67;;;7.63;;
42702;SDS011;28341;52.064;4.920;2024-02-21T15:02:08;16.77;;;7.18;;
42702;SDS011;28341;52.064;4.920;2024-02-21T15:04:12;15.15;;;7.15;;
42702;SDS011;28341;52.064;4.920;2024-02-21T15:06:17;14.77;;;7.90;;
42702;SDS011;28341;52.064;4.920;2024-02-21T15:08:21;14.45;;;8.20;;
42702;SDS011;28341;52.064;4.920;2024-02-21T15:10:28;13.55;;;7.35;;
42702;SDS011;28341;52.064;4.920;2024-02-21T15:12:32;15.90;;;7.85;;
42702;SDS011;28341;52.064;4.920;2024-02-21T15:14:36;14.82;;;7.55;;
42702;SDS011;28341;52.064;4.920;2024-02-21T15:16:43;14.90;;;7.65;;
42702;SDS011;28341;52.064;4.920;2024-02-21T15:18:48;15.20;;;8.32;;
42702;SDS011;28341;52.064;4.920;2024-02-21T15:20:52;13.23;;;7.65;;
42702;SDS011;28341;52.064;4.920;2024-02-21T15:22:57;15.68;;;7.90;;
42702;SDS011;28341;52.064;4.920;2024-02-21T15:25:05;13.73;;;7.22;;
42702;SDS011;28341;52.064;4.920;2024-02-21T15:27:15;17.50;;;9.82;;
42702;SDS011;28341;52.064;4.920;2024-02-21T15:29:19;14.27;;;7.28;;
42702;SDS011;28341;52.064;4.920;2024-02-21T15:31:24;15.93;;;7.53;;
42702;SDS011;28341;52.064;4.920;2024-02-21T15:33:32;13.73;;;7.57;;
42702;SDS011;28341;52.064;4.920;2024-02-21T15:35:36;17.10;;;8.40;;
42702;SDS011;28341;52.064;4.920;2024-02-21T15:37:42;14.50;;;7.88;;